sensor_id;sensor_type;location;lat;lon;timestamp;P1;P2;P0
66395;PMS5003;72184;51.378;-1.342;2023-09-07T00:01:10;26;26;
66395;PMS5003;72184;51.378;-1.342;2023-09-07T00:03:37;26;26;
66395;PMS5003;72184;51.378;-1.342;2023-09-07T00:06:05;24;24;
66395;PMS5003;72184;51.378;-1.342;2023-09-07T00:08:32;26;25;
66395;PMS5003;72184;51.378;-1.342;2023-09-07T00:11:02;24;22;
66395;PMS5003;72184;51.378;-1.342;2023-09-07T00:13:30;25;24;
66395;PMS5003;72184;51.378;-1.342;2023-09-07T00:15:58;24;24;
66395;PMS5003;72184;51.378;-1.342;2023-09-07T00:18:26;22;22;
66395;PMS5003;72184;51.378;-1.342;2023-09-07T00:20:54;26;26;
66395;PMS5003;72184;51.378;-1.342;2023-09-07T00:23:21;26;25;
66395;PMS5003;72184;51.378;-1.342;2023-09-07T00:25:49;25;24;
66395;PMS5003;72184;51.378;-1.342;2023-09-07T00:28:17;27;25;
66395;PMS5003;72184;51.378;-1.342;2023-09-07T00:30:44;25;23;
66395;PMS5003;72184;51.378;-1.342;2023-09-07T00:33:12;24;23;
66395;PMS5003;72184;51.378;-1.342;2023-09-07T00:35:40;26;23;
66395;PMS5003;72184;51.378;-1.342;2023-09-07T00:38:07;22;22;
66395;PMS5003;72184;51.378;-1.342;2023-09-07T00:40:35;25;25;
66395;PMS5003;72184;51.378;-1.342;2023-09-07T00:43:03;26;24;
66395;PMS5003;72184;51.378;-1.342;2023-09-07T00:45:30;26;26;
66395;PMS5003;72184;51.378;-1.342;2023-09-07T00:47:58;25;24;
66395;PMS5003;72184;51.378;-1.342;2023-09-07T00:50:26;26;26;
66395;PMS5003;72184;51.378;-1.342;2023-09-07T00:52:53;24;24;
66395;PMS5003;72184;51.378;-1.342;2023-09-07T00:55:21;26;25;
66395;PMS5003;72184;51.378;-1.342;2023-09-07T00:57:49;27;27;
66395;PMS5003;72184;51.378;-1.342;2023-09-07T01:00:16;25;25;
66395;PMS5003;72184;51.378;-1.342;2023-09-07T01:02:44;25;23;
66395;PMS5003;72184;51.378;-1.342;2023-09-07T01:05:12;26;25;
66395;PMS5003;72184;51.378;-1.342;2023-09-07T01:07:40;27;26;
66395;PMS5003;72184;51.378;-1.342;2023-09-07T01:10:13;27;26;
66395;PMS5003;72184;51.378;-1.342;2023-09-07T01:12:41;26;26;
66395;PMS5003;72184;51.378;-1.342;2023-09-07T01:15:08;29;27;
66395;PMS5003;72184;51.378;-1.342;2023-09-07T01:17:37;26;25;
66395;PMS5003;72184;51.378;-1.342;2023-09-07T01:20:05;29;27;
66395;PMS5003;72184;51.378;-1.342;2023-09-07T01:22:34;27;26;
66395;PMS5003;72184;51.378;-1.342;2023-09-07T01:25:03;28;27;
66395;PMS5003;72184;51.378;-1.342;2023-09-07T01:27:32;28;27;
66395;PMS5003;72184;51.378;-1.342;2023-09-07T01:30:00;27;26;
66395;PMS5003;72184;51.378;-1.342;2023-09-07T01:32:28;30;29;
66395;PMS5003;72184;51.378;-1.342;2023-09-07T01:34:56;29;27;
66395;PMS5003;72184;51.378;-1.342;2023-09-07T01:37:24;28;28;
66395;PMS5003;72184;51.378;-1.342;2023-09-07T01:39:51;31;31;
66395;PMS5003;72184;51.378;-1.342;2023-09-07T01:42:19;32;30;
66395;PMS5003;72184;51.378;-1.342;2023-09-07T01:44:47;30;29;
66395;PMS5003;72184;51.378;-1.342;2023-09-07T01:47:14;31;30;
66395;PMS5003;72184;51.378;-1.342;2023-09-07T01:49:42;35;32;
66395;PMS5003;72184;51.378;-1.342;2023-09-07T01:52:10;34;32;
66395;PMS5003;72184;51.378;-1.342;2023-09-07T01:54:37;33;31;
66395;PMS5003;72184;51.378;-1.342;2023-09-07T01:57:05;31;30;
66395;PMS5003;72184;51.378;-1.342;2023-09-07T01:59:33;31;30;
66395;PMS5003;72184;51.378;-1.342;2023-09-07T02:02:00;32;31;
66395;PMS5003;72184;51.378;-1.342;2023-09-07T02:04:28;33;32;
66395;PMS5003;72184;51.378;-1.342;2023-09-07T02:06:56;32;31;
66395;PMS5003;72184;51.378;-1.342;2023-09-07T02:09:24;36;33;
66395;PMS5003;72184;51.378;-1.342;2023-09-07T02:11:51;35;34;
66395;PMS5003;72184;51.378;-1.342;2023-09-07T02:14:19;37;36;
66395;PMS5003;72184;51.378;-1.342;2023-09-07T02:16:47;34;31;
66395;PMS5003;72184;51.378;-1.342;2023-09-07T02:19:14;35;34;
66395;PMS5003;72184;51.378;-1.342;2023-09-07T02:21:42;37;37;
66395;PMS5003;72184;51.378;-1.342;2023-09-07T02:24:10;35;35;
66395;PMS5003;72184;51.378;-1.342;2023-09-07T02:26:38;36;34;
66395;PMS5003;72184;51.378;-1.342;2023-09-07T02:29:05;37;36;
66395;PMS5003;72184;51.378;-1.342;2023-09-07T02:31:33;39;37;
66395;PMS5003;72184;51.378;-1.342;2023-09-07T02:34:01;39;38;
66395;PMS5003;72184;51.378;-1.342;2023-09-07T02:36:29;42;39;
66395;PMS5003;72184;51.378;-1.342;2023-09-07T02:38:56;45;42;
66395;PMS5003;72184;51.378;-1.342;2023-09-07T02:41:24;44;43;
66395;PMS5003;72184;51.378;-1.342;2023-09-07T02:43:52;45;43;
66395;PMS5003;72184;51.378;-1.342;2023-09-07T02:46:19;49;47;
66395;PMS5003;72184;51.378;-1.342;2023-09-07T02:48:47;50;48;
66395;PMS5003;72184;51.378;-1.342;2023-09-07T02:51:15;49;45;
66395;PMS5003;72184;51.378;-1.342;2023-09-07T02:53:43;50;47;
66395;PMS5003;72184;51.378;-1.342;2023-09-07T02:56:10;49;46;
66395;PMS5003;72184;51.378;-1.342;2023-09-07T02:58:38;45;42;
66395;PMS5003;72184;51.378;-1.342;2023-09-07T03:01:06;48;47;
66395;PMS5003;72184;51.378;-1.342;2023-09-07T03:03:34;49;49;
66395;PMS5003;72184;51.378;-1.342;2023-09-07T03:06:07;48;45;
66395;PMS5003;72184;51.378;-1.342;2023-09-07T03:08:35;50;47;
66395;PMS5003;72184;51.378;-1.342;2023-09-07T03:11:03;49;48;
66395;PMS5003;72184;51.378;-1.342;2023-09-07T03:13:31;50;48;
66395;PMS5003;72184;51.378;-1.342;2023-09-07T03:15:59;52;50;
66395;PMS5003;72184;51.378;-1.342;2023-09-07T03:18:27;52;49;
66395;PMS5003;72184;51.378;-1.342;2023-09-07T03:20:55;54;52;
66395;PMS5003;72184;51.378;-1.342;2023-09-07T03:23:28;55;53;
66395;PMS5003;72184;51.378;-1.342;2023-09-07T03:25:56;51;49;
66395;PMS5003;72184;51.378;-1.342;2023-09-07T03:28:24;55;52;
66395;PMS5003;72184;51.378;-1.342;2023-09-07T03:30:51;54;52;
66395;PMS5003;72184;51.378;-1.342;2023-09-07T03:33:19;47;46;
66395;PMS5003;72184;51.378;-1.342;2023-09-07T03:35:47;53;50;
66395;PMS5003;72184;51.378;-1.342;2023-09-07T03:38:14;56;52;
66395;PMS5003;72184;51.378;-1.342;2023-09-07T03:40:42;58;55;
66395;PMS5003;72184;51.378;-1.342;2023-09-07T03:43:10;59;58;
66395;PMS5003;72184;51.378;-1.342;2023-09-07T03:45:38;60;55;
66395;PMS5003;72184;51.378;-1.342;2023-09-07T03:48:06;55;52;
66395;PMS5003;72184;51.378;-1.342;2023-09-07T03:50:34;55;52;
66395;PMS5003;72184;51.378;-1.342;2023-09-07T03:53:01;57;54;
66395;PMS5003;72184;51.378;-1.342;2023-09-07T03:55:29;55;52;
66395;PMS5003;72184;51.378;-1.342;2023-09-07T03:57:57;61;58;
66395;PMS5003;72184;51.378;-1.342;2023-09-07T04:00:24;57;54;
66395;PMS5003;72184;51.378;-1.342;2023-09-07T04:02:52;55;52;
66395;PMS5003;72184;51.378;-1.342;2023-09-07T04:05:21;55;52;
66395;PMS5003;72184;51.378;-1.342;2023-09-07T04:07:50;57;56;
66395;PMS5003;72184;51.378;-1.342;2023-09-07T04:10:17;58;54;
66395;PMS5003;72184;51.378;-1.342;2023-09-07T04:12:45;57;54;
66395;PMS5003;72184;51.378;-1.342;2023-09-07T04:15:13;60;56;
66395;PMS5003;72184;51.378;-1.342;2023-09-07T04:17:41;58;53;
66395;PMS5003;72184;51.378;-1.342;2023-09-07T04:20:09;59;57;
66395;PMS5003;72184;51.378;-1.342;2023-09-07T04:22:36;55;52;
66395;PMS5003;72184;51.378;-1.342;2023-09-07T04:25:04;52;50;
66395;PMS5003;72184;51.378;-1.342;2023-09-07T04:27:32;55;51;
66395;PMS5003;72184;51.378;-1.342;2023-09-07T04:30:00;55;48;
66395;PMS5003;72184;51.378;-1.342;2023-09-07T04:32:28;52;50;
66395;PMS5003;72184;51.378;-1.342;2023-09-07T04:34:56;53;52;
66395;PMS5003;72184;51.378;-1.342;2023-09-07T04:37:23;52;50;
66395;PMS5003;72184;51.378;-1.342;2023-09-07T04:39:51;54;49;
66395;PMS5003;72184;51.378;-1.342;2023-09-07T04:42:19;56;53;
66395;PMS5003;72184;51.378;-1.342;2023-09-07T04:44:47;54;52;
66395;PMS5003;72184;51.378;-1.342;2023-09-07T04:47:15;57;53;
66395;PMS5003;72184;51.378;-1.342;2023-09-07T04:49:47;57;51;
66395;PMS5003;72184;51.378;-1.342;2023-09-07T04:52:15;61;58;
66395;PMS5003;72184;51.378;-1.342;2023-09-07T04:54:43;58;54;
66395;PMS5003;72184;51.378;-1.342;2023-09-07T04:57:12;53;50;
66395;PMS5003;72184;51.378;-1.342;2023-09-07T04:59:40;51;48;
66395;PMS5003;72184;51.378;-1.342;2023-09-07T05:02:08;51;50;
66395;PMS5003;72184;51.378;-1.342;2023-09-07T05:04:35;53;50;
66395;PMS5003;72184;51.378;-1.342;2023-09-07T05:07:03;49;46;
66395;PMS5003;72184;51.378;-1.342;2023-09-07T05:09:31;52;50;
66395;PMS5003;72184;51.378;-1.342;2023-09-07T05:11:59;53;48;
66395;PMS5003;72184;51.378;-1.342;2023-09-07T05:14:27;48;45;
66395;PMS5003;72184;51.378;-1.342;2023-09-07T05:16:55;48;48;
66395;PMS5003;72184;51.378;-1.342;2023-09-07T05:19:22;56;51;
66395;PMS5003;72184;51.378;-1.342;2023-09-07T05:21:50;53;51;
66395;PMS5003;72184;51.378;-1.342;2023-09-07T05:24:18;56;51;
66395;PMS5003;72184;51.378;-1.342;2023-09-07T05:26:46;53;48;
66395;PMS5003;72184;51.378;-1.342;2023-09-07T05:29:14;55;53;
66395;PMS5003;72184;51.378;-1.342;2023-09-07T05:31:42;54;51;
66395;PMS5003;72184;51.378;-1.342;2023-09-07T05:34:09;56;52;
66395;PMS5003;72184;51.378;-1.342;2023-09-07T05:36:37;63;59;
66395;PMS5003;72184;51.378;-1.342;2023-09-07T05:39:05;61;57;
66395;PMS5003;72184;51.378;-1.342;2023-09-07T05:41:33;56;51;
66395;PMS5003;72184;51.378;-1.342;2023-09-07T05:44:01;53;49;
66395;PMS5003;72184;51.378;-1.342;2023-09-07T05:46:29;54;51;
66395;PMS5003;72184;51.378;-1.342;2023-09-07T05:48:57;58;56;
66395;PMS5003;72184;51.378;-1.342;2023-09-07T05:51:24;54;50;
66395;PMS5003;72184;51.378;-1.342;2023-09-07T05:53:53;53;52;
66395;PMS5003;72184;51.378;-1.342;2023-09-07T05:56:21;54;51;
66395;PMS5003;72184;51.378;-1.342;2023-09-07T05:58:49;54;50;
66395;PMS5003;72184;51.378;-1.342;2023-09-07T06:01:17;52;49;
66395;PMS5003;72184;51.378;-1.342;2023-09-07T06:03:45;51;49;
66395;PMS5003;72184;51.378;-1.342;2023-09-07T06:06:13;53;50;
66395;PMS5003;72184;51.378;-1.342;2023-09-07T06:08:40;51;49;
66395;PMS5003;72184;51.378;-1.342;2023-09-07T06:11:08;51;50;
66395;PMS5003;72184;51.378;-1.342;2023-09-07T06:13:36;52;50;
66395;PMS5003;72184;51.378;-1.342;2023-09-07T06:16:04;55;52;
66395;PMS5003;72184;51.378;-1.342;2023-09-07T06:18:32;54;52;
66395;PMS5003;72184;51.378;-1.342;2023-09-07T06:21:00;59;56;
66395;PMS5003;72184;51.378;-1.342;2023-09-07T06:23:27;60;56;
66395;PMS5003;72184;51.378;-1.342;2023-09-07T06:25:55;60;57;
66395;PMS5003;72184;51.378;-1.342;2023-09-07T06:28:23;67;61;
66395;PMS5003;72184;51.378;-1.342;2023-09-07T06:30:51;61;58;
66395;PMS5003;72184;51.378;-1.342;2023-09-07T06:33:19;63;60;
66395;PMS5003;72184;51.378;-1.342;2023-09-07T06:35:47;61;59;
66395;PMS5003;72184;51.378;-1.342;2023-09-07T06:38:14;61;58;
66395;PMS5003;72184;51.378;-1.342;2023-09-07T06:40:47;62;57;
66395;PMS5003;72184;51.378;-1.342;2023-09-07T06:43:14;62;60;
66395;PMS5003;72184;51.378;-1.342;2023-09-07T06:45:42;59;57;
66395;PMS5003;72184;51.378;-1.342;2023-09-07T06:48:10;60;56;
66395;PMS5003;72184;51.378;-1.342;2023-09-07T06:50:38;63;61;
66395;PMS5003;72184;51.378;-1.342;2023-09-07T06:53:06;66;62;
66395;PMS5003;72184;51.378;-1.342;2023-09-07T06:55:34;64;62;
66395;PMS5003;72184;51.378;-1.342;2023-09-07T06:58:01;62;60;
66395;PMS5003;72184;51.378;-1.342;2023-09-07T07:00:29;64;62;
66395;PMS5003;72184;51.378;-1.342;2023-09-07T07:02:57;71;66;
66395;PMS5003;72184;51.378;-1.342;2023-09-07T07:05:25;69;67;
66395;PMS5003;72184;51.378;-1.342;2023-09-07T07:07:53;68;64;
66395;PMS5003;72184;51.378;-1.342;2023-09-07T07:10:21;68;64;
66395;PMS5003;72184;51.378;-1.342;2023-09-07T07:12:48;71;64;
66395;PMS5003;72184;51.378;-1.342;2023-09-07T07:15:16;68;65;
66395;PMS5003;72184;51.378;-1.342;2023-09-07T07:17:44;65;62;
66395;PMS5003;72184;51.378;-1.342;2023-09-07T07:20:12;70;67;
66395;PMS5003;72184;51.378;-1.342;2023-09-07T07:22:40;76;72;
66395;PMS5003;72184;51.378;-1.342;2023-09-07T07:25:08;72;71;
66395;PMS5003;72184;51.378;-1.342;2023-09-07T07:27:35;72;70;
66395;PMS5003;72184;51.378;-1.342;2023-09-07T07:30:03;77;72;
66395;PMS5003;72184;51.378;-1.342;2023-09-07T07:32:31;75;70;
66395;PMS5003;72184;51.378;-1.342;2023-09-07T07:34:59;74;71;
66395;PMS5003;72184;51.378;-1.342;2023-09-07T07:37:26;72;68;
66395;PMS5003;72184;51.378;-1.342;2023-09-07T07:39:54;69;66;
66395;PMS5003;72184;51.378;-1.342;2023-09-07T07:42:22;64;62;
66395;PMS5003;72184;51.378;-1.342;2023-09-07T07:44:50;68;66;
66395;PMS5003;72184;51.378;-1.342;2023-09-07T07:47:18;68;63;
66395;PMS5003;72184;51.378;-1.342;2023-09-07T07:49:45;64;59;
66395;PMS5003;72184;51.378;-1.342;2023-09-07T07:52:13;63;58;
66395;PMS5003;72184;51.378;-1.342;2023-09-07T07:54:41;60;58;
66395;PMS5003;72184;51.378;-1.342;2023-09-07T07:57:09;59;56;
66395;PMS5003;72184;51.378;-1.342;2023-09-07T07:59:36;63;58;
66395;PMS5003;72184;51.378;-1.342;2023-09-07T08:02:04;60;56;
66395;PMS5003;72184;51.378;-1.342;2023-09-07T08:04:32;58;56;
66395;PMS5003;72184;51.378;-1.342;2023-09-07T08:07:00;63;59;
66395;PMS5003;72184;51.378;-1.342;2023-09-07T08:09:27;59;57;
66395;PMS5003;72184;51.378;-1.342;2023-09-07T08:11:55;62;58;
66395;PMS5003;72184;51.378;-1.342;2023-09-07T08:14:23;63;59;
66395;PMS5003;72184;51.378;-1.342;2023-09-07T08:16:51;57;55;
66395;PMS5003;72184;51.378;-1.342;2023-09-07T08:19:19;57;52;
66395;PMS5003;72184;51.378;-1.342;2023-09-07T08:21:47;58;57;
66395;PMS5003;72184;51.378;-1.342;2023-09-07T08:24:15;51;50;
66395;PMS5003;72184;51.378;-1.342;2023-09-07T08:26:42;51;47;
66395;PMS5003;72184;51.378;-1.342;2023-09-07T08:29:10;60;58;
66395;PMS5003;72184;51.378;-1.342;2023-09-07T08:31:38;51;49;
66395;PMS5003;72184;51.378;-1.342;2023-09-07T08:34:06;53;51;
66395;PMS5003;72184;51.378;-1.342;2023-09-07T08:36:34;49;46;
66395;PMS5003;72184;51.378;-1.342;2023-09-07T08:39:02;47;46;
66395;PMS5003;72184;51.378;-1.342;2023-09-07T08:41:30;52;50;
66395;PMS5003;72184;51.378;-1.342;2023-09-07T08:43:58;49;49;
66395;PMS5003;72184;51.378;-1.342;2023-09-07T08:46:27;48;45;
66395;PMS5003;72184;51.378;-1.342;2023-09-07T08:48:55;52;50;
66395;PMS5003;72184;51.378;-1.342;2023-09-07T08:51:24;53;51;
66395;PMS5003;72184;51.378;-1.342;2023-09-07T08:53:52;50;48;
66395;PMS5003;72184;51.378;-1.342;2023-09-07T08:56:20;48;48;
66395;PMS5003;72184;51.378;-1.342;2023-09-07T08:58:47;48;48;
66395;PMS5003;72184;51.378;-1.342;2023-09-07T09:01:15;47;46;
66395;PMS5003;72184;51.378;-1.342;2023-09-07T09:03:42;45;42;
66395;PMS5003;72184;51.378;-1.342;2023-09-07T09:06:10;51;49;
66395;PMS5003;72184;51.378;-1.342;2023-09-07T09:08:41;39;36;
66395;PMS5003;72184;51.378;-1.342;2023-09-07T09:11:10;44;43;
66395;PMS5003;72184;51.378;-1.342;2023-09-07T09:13:39;41;40;
66395;PMS5003;72184;51.378;-1.342;2023-09-07T09:16:07;38;36;
66395;PMS5003;72184;51.378;-1.342;2023-09-07T09:18:34;38;38;
66395;PMS5003;72184;51.378;-1.342;2023-09-07T09:21:02;40;37;
66395;PMS5003;72184;51.378;-1.342;2023-09-07T09:23:30;39;36;
66395;PMS5003;72184;51.378;-1.342;2023-09-07T09:25:59;38;36;
66395;PMS5003;72184;51.378;-1.342;2023-09-07T09:28:27;41;38;
66395;PMS5003;72184;51.378;-1.342;2023-09-07T09:30:54;40;38;
66395;PMS5003;72184;51.378;-1.342;2023-09-07T09:33:22;35;31;
66395;PMS5003;72184;51.378;-1.342;2023-09-07T09:35:49;38;36;
66395;PMS5003;72184;51.378;-1.342;2023-09-07T09:38:17;28;28;
66395;PMS5003;72184;51.378;-1.342;2023-09-07T09:40:44;32;32;
66395;PMS5003;72184;51.378;-1.342;2023-09-07T09:43:12;35;33;
66395;PMS5003;72184;51.378;-1.342;2023-09-07T09:45:40;30;29;
66395;PMS5003;72184;51.378;-1.342;2023-09-07T09:48:08;31;27;
66395;PMS5003;72184;51.378;-1.342;2023-09-07T09:50:36;28;26;
66395;PMS5003;72184;51.378;-1.342;2023-09-07T09:53:04;30;29;
66395;PMS5003;72184;51.378;-1.342;2023-09-07T09:55:33;27;26;
66395;PMS5003;72184;51.378;-1.342;2023-09-07T09:58:01;28;27;
66395;PMS5003;72184;51.378;-1.342;2023-09-07T10:00:29;32;29;
66395;PMS5003;72184;51.378;-1.342;2023-09-07T10:03:00;29;28;
66395;PMS5003;72184;51.378;-1.342;2023-09-07T10:05:30;29;26;
66395;PMS5003;72184;51.378;-1.342;2023-09-07T10:08:00;24;24;
66395;PMS5003;72184;51.378;-1.342;2023-09-07T10:10:31;28;28;
66395;PMS5003;72184;51.378;-1.342;2023-09-07T10:13:01;26;26;
66395;PMS5003;72184;51.378;-1.342;2023-09-07T10:15:29;28;26;
66395;PMS5003;72184;51.378;-1.342;2023-09-07T10:18:05;26;25;
66395;PMS5003;72184;51.378;-1.342;2023-09-07T10:20:35;24;24;
66395;PMS5003;72184;51.378;-1.342;2023-09-07T10:23:15;23;22;
66395;PMS5003;72184;51.378;-1.342;2023-09-07T10:25:45;25;24;
66395;PMS5003;72184;51.378;-1.342;2023-09-07T10:28:18;26;25;
66395;PMS5003;72184;51.378;-1.342;2023-09-07T10:30:46;24;23;
66395;PMS5003;72184;51.378;-1.342;2023-09-07T10:33:25;26;25;
66395;PMS5003;72184;51.378;-1.342;2023-09-07T10:35:52;20;19;
66395;PMS5003;72184;51.378;-1.342;2023-09-07T10:38:20;22;21;
66395;PMS5003;72184;51.378;-1.342;2023-09-07T10:40:47;22;22;
66395;PMS5003;72184;51.378;-1.342;2023-09-07T10:43:14;23;21;
66395;PMS5003;72184;51.378;-1.342;2023-09-07T10:45:44;21;20;
66395;PMS5003;72184;51.378;-1.342;2023-09-07T10:48:11;24;23;
66395;PMS5003;72184;51.378;-1.342;2023-09-07T10:50:42;26;25;
66395;PMS5003;72184;51.378;-1.342;2023-09-07T10:53:11;23;22;
66395;PMS5003;72184;51.378;-1.342;2023-09-07T10:55:40;21;21;
66395;PMS5003;72184;51.378;-1.342;2023-09-07T10:58:08;22;21;
66395;PMS5003;72184;51.378;-1.342;2023-09-07T11:00:36;20;20;
66395;PMS5003;72184;51.378;-1.342;2023-09-07T11:03:07;24;23;
66395;PMS5003;72184;51.378;-1.342;2023-09-07T11:05:35;24;22;
66395;PMS5003;72184;51.378;-1.342;2023-09-07T11:08:05;22;21;
66395;PMS5003;72184;51.378;-1.342;2023-09-07T11:10:34;25;25;
66395;PMS5003;72184;51.378;-1.342;2023-09-07T11:13:03;25;25;
66395;PMS5003;72184;51.378;-1.342;2023-09-07T11:15:31;24;22;
66395;PMS5003;72184;51.378;-1.342;2023-09-07T11:18:03;26;23;
66395;PMS5003;72184;51.378;-1.342;2023-09-07T11:20:31;23;23;
66395;PMS5003;72184;51.378;-1.342;2023-09-07T11:22:59;24;23;
66395;PMS5003;72184;51.378;-1.342;2023-09-07T11:25:27;25;25;
66395;PMS5003;72184;51.378;-1.342;2023-09-07T11:28:01;24;24;
66395;PMS5003;72184;51.378;-1.342;2023-09-07T11:30:29;24;24;
66395;PMS5003;72184;51.378;-1.342;2023-09-07T11:33:01;22;21;
66395;PMS5003;72184;51.378;-1.342;2023-09-07T11:35:29;22;22;
66395;PMS5003;72184;51.378;-1.342;2023-09-07T11:37:56;22;21;
66395;PMS5003;72184;51.378;-1.342;2023-09-07T11:40:26;22;21;
66395;PMS5003;72184;51.378;-1.342;2023-09-07T11:42:53;21;21;
66395;PMS5003;72184;51.378;-1.342;2023-09-07T11:45:20;21;20;
66395;PMS5003;72184;51.378;-1.342;2023-09-07T11:47:48;24;24;
66395;PMS5003;72184;51.378;-1.342;2023-09-07T11:50:16;21;21;
66395;PMS5003;72184;51.378;-1.342;2023-09-07T11:52:43;31;30;
66395;PMS5003;72184;51.378;-1.342;2023-09-07T11:55:10;24;22;
66395;PMS5003;72184;51.378;-1.342;2023-09-07T11:57:40;27;26;
66395;PMS5003;72184;51.378;-1.342;2023-09-07T12:00:07;23;21;
66395;PMS5003;72184;51.378;-1.342;2023-09-07T12:02:35;22;22;
66395;PMS5003;72184;51.378;-1.342;2023-09-07T12:05:03;26;26;
66395;PMS5003;72184;51.378;-1.342;2023-09-07T12:07:31;25;24;
66395;PMS5003;72184;51.378;-1.342;2023-09-07T12:09:58;22;20;
66395;PMS5003;72184;51.378;-1.342;2023-09-07T12:12:25;22;22;
66395;PMS5003;72184;51.378;-1.342;2023-09-07T12:14:53;24;23;
66395;PMS5003;72184;51.378;-1.342;2023-09-07T12:17:20;22;22;
66395;PMS5003;72184;51.378;-1.342;2023-09-07T12:19:47;23;23;
66395;PMS5003;72184;51.378;-1.342;2023-09-07T12:22:15;22;20;
66395;PMS5003;72184;51.378;-1.342;2023-09-07T12:24:43;22;21;
66395;PMS5003;72184;51.378;-1.342;2023-09-07T12:27:11;22;21;
66395;PMS5003;72184;51.378;-1.342;2023-09-07T12:29:38;20;20;
66395;PMS5003;72184;51.378;-1.342;2023-09-07T12:32:05;20;19;
66395;PMS5003;72184;51.378;-1.342;2023-09-07T12:34:32;21;20;
66395;PMS5003;72184;51.378;-1.342;2023-09-07T12:36:59;21;20;
66395;PMS5003;72184;51.378;-1.342;2023-09-07T12:39:28;20;19;
66395;PMS5003;72184;51.378;-1.342;2023-09-07T12:41:55;18;18;
66395;PMS5003;72184;51.378;-1.342;2023-09-07T12:44:22;19;19;
66395;PMS5003;72184;51.378;-1.342;2023-09-07T12:46:49;18;18;
66395;PMS5003;72184;51.378;-1.342;2023-09-07T12:49:16;17;17;
66395;PMS5003;72184;51.378;-1.342;2023-09-07T12:51:44;19;18;
66395;PMS5003;72184;51.378;-1.342;2023-09-07T12:54:11;18;18;
66395;PMS5003;72184;51.378;-1.342;2023-09-07T12:56:39;18;17;
66395;PMS5003;72184;51.378;-1.342;2023-09-07T12:59:06;18;17;
66395;PMS5003;72184;51.378;-1.342;2023-09-07T13:01:33;16;16;
66395;PMS5003;72184;51.378;-1.342;2023-09-07T13:04:00;17;16;
66395;PMS5003;72184;51.378;-1.342;2023-09-07T13:06:27;17;17;
66395;PMS5003;72184;51.378;-1.342;2023-09-07T13:08:54;17;15;
66395;PMS5003;72184;51.378;-1.342;2023-09-07T13:11:21;13;12;
66395;PMS5003;72184;51.378;-1.342;2023-09-07T13:13:48;12;11;
66395;PMS5003;72184;51.378;-1.342;2023-09-07T13:16:15;12;12;
66395;PMS5003;72184;51.378;-1.342;2023-09-07T13:18:42;10;9;
66395;PMS5003;72184;51.378;-1.342;2023-09-07T13:21:09;12;12;
66395;PMS5003;72184;51.378;-1.342;2023-09-07T13:23:36;13;11;
66395;PMS5003;72184;51.378;-1.342;2023-09-07T13:26:03;11;11;
66395;PMS5003;72184;51.378;-1.342;2023-09-07T13:28:30;15;14;
66395;PMS5003;72184;51.378;-1.342;2023-09-07T13:30:57;11;11;
66395;PMS5003;72184;51.378;-1.342;2023-09-07T13:33:24;13;11;
66395;PMS5003;72184;51.378;-1.342;2023-09-07T13:35:51;7;7;
66395;PMS5003;72184;51.378;-1.342;2023-09-07T13:38:18;10;9;
66395;PMS5003;72184;51.378;-1.342;2023-09-07T13:40:45;12;10;
66395;PMS5003;72184;51.378;-1.342;2023-09-07T13:43:12;13;13;
66395;PMS5003;72184;51.378;-1.342;2023-09-07T13:45:39;10;9;
66395;PMS5003;72184;51.378;-1.342;2023-09-07T13:48:07;8;8;
66395;PMS5003;72184;51.378;-1.342;2023-09-07T13:50:33;8;8;
66395;PMS5003;72184;51.378;-1.342;2023-09-07T13:53:02;7;7;
66395;PMS5003;72184;51.378;-1.342;2023-09-07T13:55:29;11;10;
66395;PMS5003;72184;51.378;-1.342;2023-09-07T13:57:57;9;9;
66395;PMS5003;72184;51.378;-1.342;2023-09-07T14:00:24;8;8;
66395;PMS5003;72184;51.378;-1.342;2023-09-07T14:02:51;10;10;
66395;PMS5003;72184;51.378;-1.342;2023-09-07T14:05:18;9;9;
66395;PMS5003;72184;51.378;-1.342;2023-09-07T14:07:45;9;9;
66395;PMS5003;72184;51.378;-1.342;2023-09-07T14:10:12;9;9;
66395;PMS5003;72184;51.378;-1.342;2023-09-07T14:12:40;8;8;
66395;PMS5003;72184;51.378;-1.342;2023-09-07T14:15:07;7;7;
66395;PMS5003;72184;51.378;-1.342;2023-09-07T14:17:35;8;7;
66395;PMS5003;72184;51.378;-1.342;2023-09-07T14:20:03;9;9;
66395;PMS5003;72184;51.378;-1.342;2023-09-07T14:22:30;7;7;
66395;PMS5003;72184;51.378;-1.342;2023-09-07T14:24:57;7;7;
66395;PMS5003;72184;51.378;-1.342;2023-09-07T14:27:24;9;8;
66395;PMS5003;72184;51.378;-1.342;2023-09-07T14:29:51;8;8;
66395;PMS5003;72184;51.378;-1.342;2023-09-07T14:32:19;8;7;
66395;PMS5003;72184;51.378;-1.342;2023-09-07T14:34:46;10;10;
66395;PMS5003;72184;51.378;-1.342;2023-09-07T14:37:13;9;9;
66395;PMS5003;72184;51.378;-1.342;2023-09-07T14:39:40;7;7;
66395;PMS5003;72184;51.378;-1.342;2023-09-07T14:42:07;8;8;
66395;PMS5003;72184;51.378;-1.342;2023-09-07T14:44:34;8;7;
66395;PMS5003;72184;51.378;-1.342;2023-09-07T14:47:02;7;7;
66395;PMS5003;72184;51.378;-1.342;2023-09-07T14:49:30;7;7;
66395;PMS5003;72184;51.378;-1.342;2023-09-07T14:51:57;8;8;
66395;PMS5003;72184;51.378;-1.342;2023-09-07T14:54:23;9;8;
66395;PMS5003;72184;51.378;-1.342;2023-09-07T14:56:50;7;7;
66395;PMS5003;72184;51.378;-1.342;2023-09-07T14:59:17;10;10;
66395;PMS5003;72184;51.378;-1.342;2023-09-07T15:01:44;9;9;
66395;PMS5003;72184;51.378;-1.342;2023-09-07T15:04:11;8;8;
66395;PMS5003;72184;51.378;-1.342;2023-09-07T15:06:38;7;7;
66395;PMS5003;72184;51.378;-1.342;2023-09-07T15:09:05;10;9;
66395;PMS5003;72184;51.378;-1.342;2023-09-07T15:11:33;8;8;
66395;PMS5003;72184;51.378;-1.342;2023-09-07T15:14:01;11;10;
66395;PMS5003;72184;51.378;-1.342;2023-09-07T15:16:29;9;9;
66395;PMS5003;72184;51.378;-1.342;2023-09-07T15:18:56;12;11;
66395;PMS5003;72184;51.378;-1.342;2023-09-07T15:21:23;9;9;
66395;PMS5003;72184;51.378;-1.342;2023-09-07T15:23:50;9;9;
66395;PMS5003;72184;51.378;-1.342;2023-09-07T15:26:17;13;12;
66395;PMS5003;72184;51.378;-1.342;2023-09-07T15:28:44;12;10;
66395;PMS5003;72184;51.378;-1.342;2023-09-07T15:31:11;10;9;
66395;PMS5003;72184;51.378;-1.342;2023-09-07T15:33:38;12;12;
66395;PMS5003;72184;51.378;-1.342;2023-09-07T15:36:05;11;9;
66395;PMS5003;72184;51.378;-1.342;2023-09-07T15:38:32;9;9;
66395;PMS5003;72184;51.378;-1.342;2023-09-07T15:40:59;9;9;
66395;PMS5003;72184;51.378;-1.342;2023-09-07T15:43:27;10;10;
66395;PMS5003;72184;51.378;-1.342;2023-09-07T15:45:54;12;11;
66395;PMS5003;72184;51.378;-1.342;2023-09-07T15:48:22;10;9;
66395;PMS5003;72184;51.378;-1.342;2023-09-07T15:50:49;9;9;
66395;PMS5003;72184;51.378;-1.342;2023-09-07T15:53:16;9;9;
66395;PMS5003;72184;51.378;-1.342;2023-09-07T15:55:43;11;11;
66395;PMS5003;72184;51.378;-1.342;2023-09-07T15:58:10;10;10;
66395;PMS5003;72184;51.378;-1.342;2023-09-07T16:00:37;9;8;
66395;PMS5003;72184;51.378;-1.342;2023-09-07T16:03:04;12;11;
66395;PMS5003;72184;51.378;-1.342;2023-09-07T16:05:31;9;9;
66395;PMS5003;72184;51.378;-1.342;2023-09-07T16:07:58;10;9;